首页
METAR-TAF:

METAR-TAF

机场 :

卡尔加里国际机场

卡尔加里, 艾伯塔, 加拿大

纬度: 51-07N, 经度: 114-01W, 海拔: 1077米

当前天气观测

该预报发布于24分钟前的09:00 UTC
静风
温度 12°C
湿度 82%
气压 1008 hPa
能見度: 8.0公里
散云层高于16000英尺
多云层高于22000英尺

METAR: CYYC 190900Z 00000KT 5SM FU SCT160 BKN220 12/09 A2977 RMK AC3CI3 SLP083 DENSITY ALT 4300FT

时间: 03:24 (09:24 UTC)

预报

该预报发布于46分钟前的08:38 UTC
预报有效从19日的 09点(UTC)到 20日的 06点(UTC)
风速3节,风向多变
能見度: 6.4公里
散云层高于12000英尺
多云层高于20000英尺
短暂存在
从 19日的 09点(UTC)到 19日的 15点(UTC)
能見度: 9.7公里
成为
从 19日的 09点(UTC)到 19日的 11点(UTC)
风速8节,风向西转西北
从 19日的 1500点(UTC)
风速8节,风向西转西北
能見度: 10公里
多云层高于12000英尺
短暂存在
从 19日的 15点(UTC)到 19日的 24点(UTC)
能見度: 6.4公里
成为
从 19日的 18点(UTC)到 19日的 20点(UTC)
风速15节,风向西北
从 20日的 0000点(UTC)
风速10节,风向西转西北
能見度: 10公里
多云层高于8000英尺
短暂存在
从 20日的 00点(UTC)到 20日的 06点(UTC)
能見度: 9.7公里

TAF: CYYC 190838Z 1909/2006 VRB03KT 4SM FU SCT120 BKN200 TEMPO 1909/1915 6SM FU BECMG 1909/1911 29008KT FM191500 29008KT P6SM BKN120 TEMPO 1915/1924 4SM FU BECMG 1918/1920 31015KT FM200000 30010KT P6SM BKN080 TEMPO 2000/2006 6SM FU RMK NXT FCST BY 191200Z

超过4000个机场的气象观测和天气预报(METAR&TAF报告)。

可查询的气象台以黄色和红色小点在地图上表示。

将鼠标移到小点上方,可查看气象台名称。

然后点击查看天气观测和预报。

如需切换地图:点击带黑十字的绿色按钮放大地图;点击带横线的绿色按钮缩小地图;或者点击绿色箭头查看邻近地区的地图。


METAR-TAF: